createdAt,value
2022-08-19T00:01:57.100Z,14.20
2022-08-19T00:04:36.024Z,14.50
2022-08-19T00:07:08.940Z,16.10
2022-08-19T00:09:41.208Z,15.80
2022-08-19T00:12:13.809Z,15.00
2022-08-19T00:14:46.130Z,15.80
2022-08-19T00:17:18.459Z,16.70
2022-08-19T00:19:50.759Z,15.90
2022-08-19T00:22:23.039Z,16.60
2022-08-19T00:24:55.253Z,14.40
2022-08-19T00:27:29.722Z,15.70
2022-08-19T00:30:03.794Z,17.20
2022-08-19T00:32:36.020Z,15.90
2022-08-19T00:35:10.309Z,16.20
2022-08-19T00:37:44.394Z,15.70
2022-08-19T00:40:18.090Z,16.10
2022-08-19T00:42:50.476Z,17.50
2022-08-19T00:45:26.473Z,15.70
2022-08-19T00:47:58.798Z,17.00
2022-08-19T00:50:31.170Z,15.60
2022-08-19T00:53:05.274Z,15.70
2022-08-19T00:55:37.500Z,15.10
2022-08-19T00:58:14.319Z,15.50
2022-08-19T01:00:46.671Z,18.20
2022-08-19T01:03:22.494Z,16.70
2022-08-19T01:05:56.512Z,15.50
2022-08-19T01:08:28.739Z,13.90
2022-08-19T01:11:03.070Z,15.20
2022-08-19T01:13:44.621Z,16.00
2022-08-19T01:16:26.306Z,14.00
2022-08-19T01:18:58.672Z,13.80
2022-08-19T01:21:35.238Z,14.40
2022-08-19T01:24:08.237Z,15.60
2022-08-19T01:26:45.879Z,16.20
2022-08-19T01:29:19.384Z,14.70
2022-08-19T01:31:53.590Z,16.10
2022-08-19T01:34:25.908Z,16.00
2022-08-19T01:36:58.117Z,16.80
2022-08-19T01:39:30.533Z,17.50
2022-08-19T01:42:04.278Z,14.00
2022-08-19T01:44:37.383Z,15.00
2022-08-19T01:47:10.763Z,15.70
2022-08-19T01:49:43.056Z,18.50
2022-08-19T01:52:15.239Z,15.90
2022-08-19T01:54:47.460Z,17.60
2022-08-19T01:57:19.745Z,18.10
2022-08-19T01:59:52.761Z,18.60
2022-08-19T02:02:24.929Z,16.40
2022-08-19T02:04:57.088Z,18.00
2022-08-19T02:07:29.536Z,17.10
2022-08-19T02:10:06.630Z,18.70
2022-08-19T02:12:43.865Z,17.90
2022-08-19T02:15:16.393Z,16.10
2022-08-19T02:17:49.367Z,15.20
2022-08-19T02:20:21.699Z,18.80
2022-08-19T02:22:54.097Z,21.80
2022-08-19T02:25:26.479Z,17.60
2022-08-19T02:27:58.684Z,16.90
2022-08-19T02:30:30.954Z,18.80
2022-08-19T02:33:03.120Z,18.20
2022-08-19T02:35:35.520Z,16.10
2022-08-19T02:38:29.453Z,19.80
2022-08-19T02:41:05.144Z,15.10
2022-08-19T02:43:38.688Z,16.70
2022-08-19T02:46:22.250Z,16.20
2022-08-19T02:48:56.012Z,17.00
2022-08-19T02:51:33.229Z,17.20
2022-08-19T02:54:06.514Z,15.40
2022-08-19T02:56:41.336Z,19.10
2022-08-19T02:59:13.644Z,16.60
2022-08-19T03:01:45.927Z,19.50
2022-08-19T03:04:18.910Z,16.40
2022-08-19T03:06:51.263Z,19.00
2022-08-19T03:09:23.856Z,20.00
2022-08-19T03:11:56.088Z,18.40
2022-08-19T03:14:28.990Z,15.70
2022-08-19T03:17:01.164Z,21.40
2022-08-19T03:19:33.729Z,18.00
2022-08-19T03:22:06.116Z,18.90
2022-08-19T03:24:38.847Z,18.60
2022-08-19T03:27:11.799Z,19.00
2022-08-19T03:29:44.560Z,17.70
2022-08-19T03:32:32.125Z,19.50
2022-08-19T03:35:06.097Z,16.90
2022-08-19T03:37:38.299Z,18.80
2022-08-19T03:40:16.543Z,14.90
2022-08-19T03:42:49.625Z,16.50
2022-08-19T03:45:22.256Z,18.40
2022-08-19T03:47:54.411Z,18.00
2022-08-19T03:50:26.591Z,21.00
2022-08-19T03:52:58.847Z,17.40
2022-08-19T03:55:31.517Z,16.50
2022-08-19T03:58:03.768Z,14.30
2022-08-19T04:00:37.235Z,16.40
2022-08-19T04:03:09.475Z,14.60
2022-08-19T04:05:41.835Z,15.60
2022-08-19T04:08:14.179Z,16.00
2022-08-19T04:10:46.375Z,17.90
2022-08-19T04:13:19.617Z,18.90
2022-08-19T04:15:51.937Z,13.20
2022-08-19T04:18:24.147Z,16.40
2022-08-19T04:20:56.355Z,15.40
2022-08-19T04:23:29.561Z,15.50
2022-08-19T04:26:02.773Z,14.80
2022-08-19T04:28:38.571Z,15.50
2022-08-19T04:31:17.849Z,17.00
2022-08-19T04:33:50.128Z,13.60
2022-08-19T04:36:24.408Z,17.20
2022-08-19T04:39:00.459Z,16.50
2022-08-19T04:41:50.367Z,13.50
2022-08-19T04:44:23.037Z,14.60
2022-08-19T04:46:55.479Z,19.10
2022-08-19T04:49:28.232Z,15.30
2022-08-19T04:52:00.417Z,15.90
2022-08-19T04:54:38.794Z,19.70
2022-08-19T04:57:12.363Z,17.80
2022-08-19T04:59:44.654Z,16.00
2022-08-19T05:02:16.908Z,17.70
2022-08-19T05:04:49.515Z,15.90
2022-08-19T05:07:21.630Z,15.20
2022-08-19T05:09:58.305Z,15.00
2022-08-19T05:12:31.523Z,14.90
2022-08-19T05:15:04.656Z,15.40
2022-08-19T05:17:38.948Z,14.10
2022-08-19T05:20:31.487Z,17.20
2022-08-19T05:23:03.644Z,14.30
2022-08-19T05:25:45.494Z,17.90
2022-08-19T05:28:17.685Z,15.30
2022-08-19T05:30:51.950Z,16.00
2022-08-19T05:33:25.359Z,18.80
2022-08-19T05:35:57.511Z,16.90
2022-08-19T05:38:29.727Z,18.70
2022-08-19T05:41:02.024Z,17.00
2022-08-19T05:43:34.257Z,16.70
2022-08-19T05:46:07.168Z,16.10
2022-08-19T05:48:39.647Z,18.80
2022-08-19T05:51:12.204Z,18.10
2022-08-19T05:53:44.807Z,17.00
2022-08-19T05:56:19.364Z,18.70
2022-08-19T05:58:51.539Z,17.30
2022-08-19T06:01:24.275Z,16.70
2022-08-19T06:03:56.927Z,16.00
2022-08-19T06:06:29.108Z,16.60
2022-08-19T06:09:01.343Z,15.80
2022-08-19T06:11:40.487Z,14.10
2022-08-19T06:14:16.688Z,14.00
2022-08-19T06:16:49.839Z,15.50
2022-08-19T06:19:25.345Z,16.40
2022-08-19T06:21:59.392Z,13.90
2022-08-19T06:24:32.976Z,14.50
2022-08-19T06:27:06.726Z,14.00
2022-08-19T06:29:40.159Z,13.70
2022-08-19T06:32:12.819Z,13.50
2022-08-19T06:34:45.114Z,13.50
2022-08-19T06:37:18.037Z,12.40
2022-08-19T06:39:50.989Z,14.40
2022-08-19T06:42:23.954Z,13.40
2022-08-19T06:44:56.308Z,14.60
2022-08-19T06:47:29.185Z,12.00
2022-08-19T06:50:05.608Z,14.10
2022-08-19T06:52:39.491Z,13.50
2022-08-19T06:55:13.612Z,14.30
2022-08-19T06:57:47.361Z,13.60
2022-08-19T07:00:19.867Z,13.20
2022-08-19T07:02:54.270Z,13.30
2022-08-19T07:05:31.727Z,14.60
2022-08-19T07:08:06.391Z,12.40
2022-08-19T07:10:38.668Z,12.50
2022-08-19T07:13:15.157Z,13.50
2022-08-19T07:15:48.345Z,13.70
2022-08-19T07:18:22.426Z,12.30
2022-08-19T07:21:04.129Z,12.90
2022-08-19T07:26:18.119Z,14.50
2022-08-19T07:28:51.552Z,12.00
2022-08-19T07:31:27.315Z,12.90
2022-08-19T07:34:03.539Z,10.40
2022-08-19T07:36:36.707Z,10.80
2022-08-19T07:39:11.414Z,11.20
2022-08-19T07:41:43.883Z,11.50
2022-08-19T07:44:17.414Z,11.20
2022-08-19T07:46:53.333Z,10.90
2022-08-19T07:49:26.724Z,10.50
2022-08-19T07:52:03.251Z,11.50
2022-08-19T07:54:39.860Z,9.60
2022-08-19T07:57:12.227Z,9.30
2022-08-19T07:59:44.562Z,11.10
2022-08-19T08:02:16.809Z,9.50
2022-08-19T08:05:06.711Z,9.70
2022-08-19T08:07:56.246Z,10.00
2022-08-19T08:10:28.575Z,9.20
2022-08-19T08:13:09.539Z,9.10
2022-08-19T08:15:43.759Z,8.60
2022-08-19T08:18:16.125Z,9.30
2022-08-19T08:20:48.321Z,11.20
2022-08-19T08:23:27.415Z,8.90
2022-08-19T08:26:01.367Z,9.00
2022-08-19T08:28:34.157Z,9.70
2022-08-19T08:31:09.706Z,8.70
2022-08-19T08:33:43.374Z,8.20
2022-08-19T08:36:16.610Z,8.80
2022-08-19T08:38:49.327Z,8.40
2022-08-19T08:41:30.612Z,9.70
2022-08-19T08:44:03.605Z,8.80
2022-08-19T08:46:42.268Z,9.60
2022-08-19T08:49:28.716Z,8.80
2022-08-19T08:52:05.200Z,8.90
2022-08-19T08:54:49.226Z,8.50
2022-08-19T08:57:40.768Z,10.10
2022-08-19T09:00:19.732Z,8.50
2022-08-19T09:02:52.139Z,8.60
2022-08-19T09:05:29.213Z,10.10
2022-08-19T09:08:20.762Z,8.40
2022-08-19T09:10:58.619Z,7.50
2022-08-19T09:13:40.860Z,8.40
2022-08-19T09:16:17.035Z,8.10
2022-08-19T09:18:54.206Z,8.20
2022-08-19T09:21:33.470Z,8.70
2022-08-19T09:24:07.751Z,9.60
2022-08-19T09:26:47.485Z,8.70
2022-08-19T09:29:25.892Z,8.10
2022-08-19T09:31:58.091Z,8.60
2022-08-19T09:34:30.663Z,9.40
2022-08-19T09:37:10.087Z,8.90
2022-08-19T09:39:43.737Z,8.60
2022-08-19T09:42:16.137Z,7.30
2022-08-19T09:44:49.358Z,7.90
2022-08-19T09:47:21.542Z,8.20
2022-08-19T09:49:56.070Z,8.70
2022-08-19T09:52:32.818Z,8.80
2022-08-19T09:55:07.362Z,8.10
2022-08-19T09:57:41.087Z,8.50
2022-08-19T10:00:15.058Z,7.70
2022-08-19T10:02:47.292Z,8.00
2022-08-19T10:05:37.148Z,7.90
2022-08-19T10:08:13.067Z,7.60
2022-08-19T10:10:47.284Z,8.70
2022-08-19T10:13:24.689Z,7.90
2022-08-19T10:15:59.493Z,7.70
2022-08-19T10:18:34.735Z,8.00
2022-08-19T10:21:11.730Z,7.60
2022-08-19T10:23:46.762Z,7.20
2022-08-19T10:26:22.090Z,7.30
2022-08-19T10:28:54.903Z,7.40
2022-08-19T10:32:00.521Z,7.30
2022-08-19T10:34:27.875Z,8.20
2022-08-19T10:37:02.531Z,7.50
2022-08-19T10:39:43.271Z,9.30
2022-08-19T10:42:17.316Z,7.20
2022-08-19T10:44:49.600Z,9.00
2022-08-19T10:47:26.305Z,8.20
2022-08-19T10:50:22.763Z,8.40
2022-08-19T10:53:09.712Z,8.40
2022-08-19T10:55:59.904Z,9.00
2022-08-19T10:58:32.375Z,7.60
2022-08-19T11:01:04.592Z,9.90
2022-08-19T11:03:36.967Z,9.20
2022-08-19T11:06:11.026Z,8.20
2022-08-19T11:08:45.961Z,9.80
2022-08-19T11:11:18.167Z,10.10
2022-08-19T11:13:50.971Z,10.30
2022-08-19T11:16:26.547Z,8.80
2022-08-19T11:19:01.531Z,8.50
2022-08-19T11:21:36.801Z,9.50
2022-08-19T11:24:12.641Z,7.50
2022-08-19T11:26:46.475Z,8.40
2022-08-19T11:29:20.402Z,8.90
2022-08-19T11:31:53.986Z,9.10
2022-08-19T11:34:29.442Z,7.90
2022-08-19T11:37:01.686Z,10.10
2022-08-19T11:39:36.667Z,10.00
2022-08-19T11:42:23.889Z,9.40
2022-08-19T11:44:56.722Z,7.50
2022-08-19T11:47:29.384Z,8.90
2022-08-19T11:50:01.594Z,7.60
2022-08-19T11:52:33.883Z,9.90
2022-08-19T11:55:06.871Z,8.70
2022-08-19T11:57:39.201Z,8.90
2022-08-19T12:00:14.298Z,9.80
2022-08-19T12:02:46.521Z,9.80
2022-08-19T12:05:19.048Z,8.60
2022-08-19T12:07:51.211Z,9.20
2022-08-19T12:10:26.306Z,8.90
2022-08-19T12:12:59.146Z,9.40
2022-08-19T12:15:37.286Z,9.80
2022-08-19T12:18:10.564Z,9.10
2022-08-19T12:20:46.951Z,10.10
2022-08-19T12:23:19.404Z,9.60
2022-08-19T12:25:52.918Z,9.20
2022-08-19T12:28:27.294Z,9.30
2022-08-19T12:31:00.315Z,10.10
2022-08-19T12:33:33.235Z,8.30
2022-08-19T12:36:07.829Z,8.70
2022-08-19T12:38:41.553Z,10.10
2022-08-19T12:41:23.131Z,8.90
2022-08-19T12:43:55.303Z,8.30
2022-08-19T12:46:27.792Z,9.20
2022-08-19T12:49:00.586Z,8.50
2022-08-19T12:51:41.250Z,9.50
2022-08-19T12:54:13.467Z,10.20
2022-08-19T12:56:46.159Z,9.10
2022-08-19T12:59:19.886Z,9.50
2022-08-19T13:01:52.200Z,9.30
2022-08-19T13:04:24.637Z,8.80
2022-08-19T13:06:56.799Z,9.80
2022-08-19T13:09:29.048Z,8.20
2022-08-19T13:12:03.633Z,7.50
2022-08-19T13:14:35.772Z,9.10
2022-08-19T13:17:09.656Z,9.30
2022-08-19T13:19:42.439Z,9.00
2022-08-19T13:22:15.177Z,8.20
2022-08-19T13:24:47.706Z,8.80
2022-08-19T13:27:19.880Z,8.70
2022-08-19T13:30:09.724Z,8.90
2022-08-19T13:32:59.440Z,8.80
2022-08-19T13:35:31.715Z,7.50
2022-08-19T13:38:05.919Z,7.60
2022-08-19T13:40:44.791Z,9.40
2022-08-19T13:43:22.983Z,8.70
2022-08-19T13:45:57.881Z,8.50
2022-08-19T13:48:32.177Z,8.70
2022-08-19T13:51:07.120Z,7.30
2022-08-19T13:53:39.924Z,8.80
2022-08-19T13:56:13.795Z,8.80
2022-08-19T13:58:46.306Z,10.00
2022-08-19T14:01:24.471Z,9.20
2022-08-19T14:03:57.120Z,9.90
2022-08-19T14:06:29.541Z,8.90
2022-08-19T14:09:03.089Z,9.90
2022-08-19T14:11:35.319Z,8.50
2022-08-19T14:14:07.530Z,9.20
2022-08-19T14:16:40.077Z,8.90
2022-08-19T14:19:12.263Z,9.30
2022-08-19T14:21:44.447Z,7.60
2022-08-19T14:24:16.782Z,8.60
2022-08-19T14:26:49.667Z,8.20
2022-08-19T14:29:22.262Z,9.30
2022-08-19T14:31:54.423Z,8.90
2022-08-19T14:34:27.045Z,8.50
2022-08-19T14:36:59.355Z,9.00
2022-08-19T14:39:34.713Z,9.50
2022-08-19T14:42:11.377Z,8.40
2022-08-19T14:44:44.228Z,8.10
2022-08-19T14:47:16.388Z,8.20
2022-08-19T14:49:48.710Z,7.40
2022-08-19T14:52:22.910Z,8.70
2022-08-19T14:54:55.255Z,7.80
2022-08-19T14:57:27.716Z,8.40
2022-08-19T15:00:01.091Z,8.30
2022-08-19T15:02:35.263Z,8.50
2022-08-19T15:05:09.088Z,7.70
2022-08-19T15:07:41.951Z,7.60
2022-08-19T15:10:16.790Z,9.70
2022-08-19T15:12:51.750Z,8.00
2022-08-19T15:15:24.300Z,7.10
2022-08-19T15:17:57.612Z,7.60
2022-08-19T15:20:30.223Z,6.80
2022-08-19T15:23:02.480Z,6.00
2022-08-19T15:25:35.561Z,6.20
2022-08-19T15:28:07.924Z,6.70
2022-08-19T15:30:41.789Z,6.10
2022-08-19T15:33:15.718Z,7.80
2022-08-19T15:35:48.711Z,7.30
2022-08-19T15:38:22.193Z,7.10
2022-08-19T15:41:14.872Z,6.70
2022-08-19T15:43:47.045Z,6.80
2022-08-19T15:46:23.737Z,7.70
2022-08-19T15:48:59.793Z,6.70
2022-08-19T15:51:35.604Z,7.10
2022-08-19T15:54:10.515Z,6.10
2022-08-19T16:00:02.590Z,7.30
2022-08-19T16:02:53.956Z,7.10
2022-08-19T16:05:45.779Z,7.00
2022-08-19T16:08:18.462Z,6.60
2022-08-19T16:10:50.981Z,7.40
2022-08-19T16:13:23.466Z,7.10
2022-08-19T16:15:57.654Z,7.20
2022-08-19T16:18:30.777Z,7.50
2022-08-19T16:21:03.029Z,7.20
2022-08-19T16:23:35.320Z,6.00
2022-08-19T16:26:09.572Z,7.00
2022-08-19T16:28:42.491Z,7.40
2022-08-19T16:31:17.115Z,8.10
2022-08-19T16:33:49.359Z,8.50
2022-08-19T16:36:24.341Z,7.00
2022-08-19T16:38:57.307Z,7.50
2022-08-19T16:41:30.127Z,8.40
2022-08-19T16:44:02.339Z,7.30
2022-08-19T16:46:34.628Z,7.20
2022-08-19T16:49:07.534Z,8.00
2022-08-19T16:51:40.133Z,8.40
2022-08-19T16:54:12.403Z,6.70
2022-08-19T16:56:44.619Z,7.40
2022-08-19T16:59:16.795Z,8.10
2022-08-19T17:01:48.966Z,8.40
2022-08-19T17:04:21.270Z,9.10
2022-08-19T17:06:53.497Z,7.10
2022-08-19T17:09:25.954Z,7.70
2022-08-19T17:11:58.874Z,8.30
2022-08-19T17:14:31.077Z,7.90
2022-08-19T17:17:03.288Z,6.60
2022-08-19T17:19:35.581Z,7.60
2022-08-19T17:22:08.170Z,7.90
2022-08-19T17:24:43.688Z,7.40
2022-08-19T17:27:15.916Z,7.30
2022-08-19T17:29:48.246Z,7.70
2022-08-19T17:32:24.860Z,8.90
2022-08-19T17:34:57.513Z,8.40
2022-08-19T17:37:29.731Z,7.20
2022-08-19T17:40:02.951Z,8.00
2022-08-19T17:42:36.708Z,7.70
2022-08-19T17:45:11.492Z,7.70
2022-08-19T17:47:44.211Z,8.20
2022-08-19T17:50:16.616Z,8.70
2022-08-19T17:52:52.587Z,9.00
2022-08-19T17:55:26.076Z,7.60
2022-08-19T17:57:58.362Z,8.00
2022-08-19T18:00:30.733Z,8.50
2022-08-19T18:03:05.931Z,8.50
2022-08-19T18:05:44.788Z,10.30
2022-08-19T18:08:17.383Z,8.10
2022-08-19T18:10:49.638Z,7.50
2022-08-19T18:13:21.878Z,8.50
2022-08-19T18:15:54.117Z,9.40
2022-08-19T18:18:26.665Z,8.30
2022-08-19T18:20:59.564Z,9.00
2022-08-19T18:23:41.271Z,9.80
2022-08-19T18:26:17.920Z,8.90
2022-08-19T18:28:51.936Z,8.10
2022-08-19T18:31:24.721Z,9.80
2022-08-19T18:33:56.991Z,8.10
2022-08-19T18:36:52.636Z,8.80
2022-08-19T18:39:39.488Z,8.50
2022-08-19T18:42:36.991Z,9.50
2022-08-19T18:45:28.212Z,8.30
2022-08-19T18:48:25.805Z,8.50
2022-08-19T18:51:02.483Z,9.10
2022-08-19T18:53:39.006Z,10.00
2022-08-19T18:56:13.344Z,9.00
2022-08-19T18:58:45.944Z,9.70
2022-08-19T19:01:22.159Z,9.40
2022-08-19T19:03:56.279Z,7.90
2022-08-19T19:06:31.206Z,8.00
2022-08-19T19:09:03.440Z,8.80
2022-08-19T19:11:38.616Z,10.00
2022-08-19T19:14:23.267Z,9.70
2022-08-19T19:17:11.072Z,10.00
2022-08-19T19:19:44.320Z,8.20
2022-08-19T19:22:19.527Z,8.10
2022-08-19T19:24:54.242Z,7.60
2022-08-19T19:27:26.995Z,8.50
2022-08-19T19:29:59.216Z,10.10
2022-08-19T19:32:39.203Z,8.90
2022-08-19T19:35:12.195Z,8.40
2022-08-19T19:37:45.458Z,9.10
2022-08-19T19:40:17.711Z,7.80
2022-08-19T19:42:50.051Z,8.70
2022-08-19T19:45:22.679Z,7.30
2022-08-19T19:47:54.986Z,9.80
2022-08-19T19:50:31.404Z,8.40
2022-08-19T19:53:03.651Z,8.50
2022-08-19T19:55:36.848Z,8.30
2022-08-19T19:58:09.199Z,9.20
2022-08-19T20:00:41.458Z,7.40
2022-08-19T20:03:13.847Z,7.80
2022-08-19T20:05:46.183Z,8.20
2022-08-19T20:08:35.735Z,8.10
2022-08-19T20:11:08.883Z,8.90
2022-08-19T20:13:41.158Z,8.80
2022-08-19T20:16:14.132Z,8.20
2022-08-19T20:18:47.371Z,8.90
2022-08-19T20:21:19.827Z,9.20
2022-08-19T20:24:09.938Z,8.40
2022-08-19T20:26:44.355Z,7.70
2022-08-19T20:29:38.488Z,8.70
2022-08-19T20:32:13.119Z,9.10
2022-08-19T20:34:49.148Z,8.60
2022-08-19T20:37:21.406Z,8.20
2022-08-19T20:39:53.688Z,8.80
2022-08-19T20:42:25.904Z,8.50
2022-08-19T20:44:58.193Z,10.00
2022-08-19T20:47:32.102Z,8.60
2022-08-19T20:50:06.204Z,8.90
2022-08-19T20:52:39.309Z,9.20
2022-08-19T20:55:14.687Z,8.80
2022-08-19T20:57:49.265Z,7.60
2022-08-19T21:00:21.803Z,8.60
2022-08-19T21:02:53.952Z,8.10
2022-08-19T21:05:30.448Z,6.60
2022-08-19T21:08:04.784Z,7.50
2022-08-19T21:10:41.747Z,7.90
2022-08-19T21:13:14.647Z,8.00
2022-08-19T21:15:48.165Z,8.00
2022-08-19T21:18:22.357Z,8.20
2022-08-19T21:20:56.187Z,6.70
2022-08-19T21:23:29.828Z,8.40
2022-08-19T21:26:02.886Z,10.00
2022-08-19T21:28:36.381Z,9.10
2022-08-19T21:31:10.642Z,8.20
2022-08-19T21:33:42.800Z,8.50
2022-08-19T21:36:14.975Z,9.80
2022-08-19T21:38:47.190Z,11.60
2022-08-19T21:41:19.375Z,9.50
2022-08-19T21:43:51.822Z,8.30
2022-08-19T21:46:24.057Z,8.80
2022-08-19T21:48:56.539Z,7.90
2022-08-19T21:51:28.795Z,8.50
2022-08-19T21:54:01.336Z,7.50
2022-08-19T21:56:35.164Z,8.20
2022-08-19T21:59:07.711Z,7.70
2022-08-19T22:01:39.867Z,8.90
2022-08-19T22:04:12.121Z,7.80
2022-08-19T22:06:44.367Z,8.00
2022-08-19T22:09:18.332Z,8.10
2022-08-19T22:11:50.704Z,8.70
2022-08-19T22:14:22.866Z,9.90
2022-08-19T22:16:55.051Z,8.70
2022-08-19T22:19:27.223Z,8.20
2022-08-19T22:21:59.370Z,8.40
2022-08-19T22:24:31.543Z,9.30
2022-08-19T22:27:06.061Z,7.70
2022-08-19T22:29:40.731Z,9.80
2022-08-19T22:32:26.552Z,8.80
2022-08-19T22:35:02.196Z,8.50
2022-08-19T22:37:35.015Z,9.80
2022-08-19T22:40:09.357Z,9.70
2022-08-19T22:42:41.643Z,10.60
2022-08-19T22:45:17.164Z,9.90
2022-08-19T22:47:49.321Z,9.10
2022-08-19T22:50:21.602Z,8.70
2022-08-19T22:52:59.135Z,8.60
2022-08-19T22:55:32.421Z,8.50
2022-08-19T22:58:04.681Z,10.00
2022-08-19T23:00:36.879Z,9.90
2022-08-19T23:03:09.116Z,9.30
2022-08-19T23:05:41.345Z,8.90
2022-08-19T23:08:13.486Z,8.80
2022-08-19T23:10:45.704Z,10.20
2022-08-19T23:13:18.783Z,10.70
2022-08-19T23:15:51.112Z,11.20
2022-08-19T23:18:23.356Z,9.70
2022-08-19T23:20:55.659Z,11.30
2022-08-19T23:23:28.771Z,14.70
2022-08-19T23:26:01.076Z,11.10
2022-08-19T23:28:50.659Z,9.60
2022-08-19T23:31:23.000Z,10.40
2022-08-19T23:33:55.152Z,10.90
2022-08-19T23:36:27.942Z,9.30
2022-08-19T23:39:01.024Z,11.20
2022-08-19T23:41:33.213Z,10.50
2022-08-19T23:44:06.483Z,10.10
2022-08-19T23:46:54.339Z,9.20
2022-08-19T23:49:28.414Z,10.60
2022-08-19T23:52:01.111Z,10.00
2022-08-19T23:54:34.384Z,10.90
2022-08-19T23:57:15.935Z,14.40
2022-08-19T23:59:48.132Z,10.30
